Time;durP1;ratioP1;P1;durP2;ratioP2;P2;SDS_P1;SDS_P2;PMS_P1;PMS_P2;Temp;Humidity;BMP_temperature;BMP_pressure;BME280_temperature;BME280_humidity;BME280_pressure;Samples;Min_cycle;Max_cycle;Signal;HPM_P1;HPM_P2
2023/07/19 00:01:05;;;;;;;7.30;3.80;;;;;;;19.93;97.85;99784.13;5028100;28;20216;-70
2023/07/19 00:03:31;;;;;;;5.23;4.43;;;;;;;19.97;98.06;99788.06;5037283;28;20492;-70
2023/07/19 00:05:59;;;;;;;9.87;4.07;;;;;;;19.82;99.34;99787.78;5043264;28;20182;-71
2023/07/19 00:08:24;;;;;;;7.47;4.27;;;;;;;19.79;99.81;99790.69;5051371;28;20181;-70
2023/07/19 00:10:49;;;;;;;14.03;5.10;;;;;;;19.70;100.00;99792.41;5037574;28;20668;-72
2023/07/19 00:13:14;;;;;;;5.00;3.97;;;;;;;19.62;100.00;99789.72;5053892;28;20225;-72
2023/07/19 00:15:40;;;;;;;5.93;3.87;;;;;;;19.47;100.00;99789.44;5050844;28;20217;-72
2023/07/19 00:18:05;;;;;;;7.63;3.17;;;;;;;19.42;100.00;99784.66;5056666;28;20177;-72
2023/07/19 00:20:30;;;;;;;7.10;4.03;;;;;;;19.35;100.00;99781.03;5044874;28;20224;-71
2023/07/19 00:22:56;;;;;;;7.57;4.63;;;;;;;19.27;100.00;99789.56;5056197;28;20182;-71
2023/07/19 00:25:21;;;;;;;7.00;5.43;;;;;;;19.25;100.00;99786.31;5050939;28;20194;-71
2023/07/19 00:27:48;;;;;;;12.53;6.87;;;;;;;19.18;100.00;99791.28;5049947;28;20177;-71
2023/07/19 00:30:14;;;;;;;9.30;5.90;;;;;;;19.15;100.00;99785.53;5042265;28;20181;-72
2023/07/19 00:32:39;;;;;;;6.10;4.13;;;;;;;19.22;100.00;99784.00;5043202;28;20165;-71
2023/07/19 00:35:05;;;;;;;9.20;4.23;;;;;;;19.18;100.00;99783.47;5049459;28;20201;-71
2023/07/19 00:37:31;;;;;;;6.70;4.60;;;;;;;19.24;100.00;99783.84;5049922;28;20201;-72
2023/07/19 00:39:56;;;;;;;5.40;4.13;;;;;;;19.22;100.00;99784.00;5043112;28;20287;-71
2023/07/19 00:42:21;;;;;;;11.03;4.17;;;;;;;19.15;100.00;99783.78;5044052;28;20251;-71
2023/07/19 00:44:46;;;;;;;6.30;3.93;;;;;;;19.12;100.00;99778.84;5047293;28;20224;-72
2023/07/19 00:47:12;;;;;;;4.93;4.03;;;;;;;19.06;100.00;99779.44;5049550;28;20605;-71
2023/07/19 00:49:40;;;;;;;4.63;3.50;;;;;;;19.11;100.00;99773.78;5054141;28;20216;-71
2023/07/19 00:52:07;;;;;;;5.77;3.30;;;;;;;19.03;100.00;99772.72;5032728;28;20237;-71
2023/07/19 00:54:32;;;;;;;9.57;4.10;;;;;;;19.01;100.00;99773.84;5053266;28;20193;-71
2023/07/19 00:56:58;;;;;;;7.60;3.73;;;;;;;19.04;100.00;99776.16;5055017;28;20226;-71
2023/07/19 00:59:23;;;;;;;6.70;3.50;;;;;;;19.02;100.00;99771.06;5055122;28;20170;-71
2023/07/19 01:01:51;;;;;;;5.80;3.27;;;;;;;18.96;100.00;99773.47;5044606;28;20235;-71
2023/07/19 01:04:17;;;;;;;5.30;3.60;;;;;;;18.92;100.00;99774.72;5045569;28;20181;-71
2023/07/19 01:06:43;;;;;;;6.30;3.53;;;;;;;18.79;100.00;99778.47;5053682;28;20185;-71
2023/07/19 01:09:11;;;;;;;4.00;3.33;;;;;;;18.76;100.00;99768.31;5053724;28;20559;-70
2023/07/19 01:11:36;;;;;;;7.13;3.50;;;;;;;18.71;100.00;99771.34;5045908;28;20267;-71
2023/07/19 01:14:02;;;;;;;6.53;3.47;;;;;;;18.68;100.00;99771.66;5055601;28;20221;-72
2023/07/19 01:16:27;;;;;;;7.97;3.60;;;;;;;18.63;100.00;99776.47;5054541;28;20177;-71
2023/07/19 01:18:52;;;;;;;6.07;3.47;;;;;;;18.54;100.00;99778.16;5054954;28;20608;-71
2023/07/19 01:21:17;;;;;;;7.97;3.57;;;;;;;18.46;100.00;99766.81;5045066;28;20321;-71
2023/07/19 01:23:43;;;;;;;8.03;3.20;;;;;;;18.49;100.00;99775.16;5060363;28;20193;-71
2023/07/19 01:26:08;;;;;;;4.17;3.03;;;;;;;18.40;100.00;99770.81;5054091;28;20189;-71
2023/07/19 01:28:33;;;;;;;4.23;3.20;;;;;;;18.29;100.00;99770.97;5054619;28;20629;-71
2023/07/19 01:31:04;;;;;;;5.40;3.33;;;;;;;18.18;100.00;99772.81;5051414;28;20274;-71
2023/07/19 01:33:29;;;;;;;5.33;3.17;;;;;;;18.17;100.00;99767.72;5062151;28;20185;-71
2023/07/19 01:35:54;;;;;;;5.27;3.53;;;;;;;18.13;100.00;99771.56;5052417;28;20254;-70
2023/07/19 01:38:19;;;;;;;4.40;3.20;;;;;;;18.11;100.00;99769.13;5054306;28;20182;-70
2023/07/19 01:40:45;;;;;;;4.30;3.23;;;;;;;18.02;100.00;99762.13;5045500;28;20264;-70
2023/07/19 01:43:10;;;;;;;7.13;3.77;;;;;;;17.97;100.00;99769.53;5060871;28;20173;-70
2023/07/19 01:45:35;;;;;;;6.40;4.03;;;;;;;17.94;100.00;99769.81;5053862;28;20621;-70
2023/07/19 01:48:00;;;;;;;7.90;4.50;;;;;;;17.89;100.00;99768.41;5054684;28;20247;-70
2023/07/19 01:50:26;;;;;;;6.13;3.70;;;;;;;17.87;100.00;99772.97;5046777;28;20636;-71
2023/07/19 01:52:51;;;;;;;6.30;4.33;;;;;;;17.83;100.00;99768.97;5066750;28;20274;-71
2023/07/19 01:55:16;;;;;;;4.20;3.50;;;;;;;17.76;100.00;99765.28;5052377;28;20231;-70
2023/07/19 01:57:42;;;;;;;4.80;3.00;;;;;;;17.75;100.00;99767.06;5053982;28;20178;-71
2023/07/19 02:00:08;;;;;;;5.57;3.53;;;;;;;17.70;100.00;99756.28;5042788;28;20188;-71
2023/07/19 02:02:33;;;;;;;4.40;3.00;;;;;;;17.62;100.00;99757.91;5040697;28;20673;-71
2023/07/19 02:04:58;;;;;;;4.37;2.93;;;;;;;17.71;100.00;99762.28;5051408;28;20196;-70
2023/07/19 02:07:23;;;;;;;3.77;3.23;;;;;;;17.71;100.00;99755.31;5052753;28;20204;-70
2023/07/19 02:09:49;;;;;;;8.07;4.80;;;;;;;17.53;100.00;99746.56;5053617;28;20588;-70
2023/07/19 02:12:14;;;;;;;5.83;2.90;;;;;;;17.51;100.00;99746.69;5047612;28;20240;-71
2023/07/19 02:14:39;;;;;;;4.60;2.83;;;;;;;17.54;100.00;99743.00;5050654;28;20652;-70
2023/07/19 02:17:05;;;;;;;4.90;3.20;;;;;;;17.57;100.00;99742.72;5054125;28;20220;-70
2023/07/19 02:19:30;;;;;;;4.70;2.90;;;;;;;17.58;100.00;99744.38;5053677;28;20237;-71
2023/07/19 02:21:55;;;;;;;5.40;3.17;;;;;;;17.50;100.00;99745.06;5057827;28;20243;-70
2023/07/19 02:24:21;;;;;;;5.07;3.07;;;;;;;17.55;100.00;99747.22;5053751;28;20264;-71
2023/07/19 02:26:46;;;;;;;6.90;3.57;;;;;;;17.52;100.00;99745.72;5053518;28;20257;-71
2023/07/19 02:29:11;;;;;;;5.83;3.47;;;;;;;17.51;100.00;99751.88;5053239;28;20273;-70
2023/07/19 02:31:37;;;;;;;7.13;3.53;;;;;;;17.49;100.00;99747.78;5055103;28;20221;-70
2023/07/19 02:34:06;;;;;;;6.83;3.73;;;;;;;17.52;100.00;99755.31;5055857;28;20169;-71
2023/07/19 02:36:31;;;;;;;4.10;3.07;;;;;;;17.41;100.00;99746.72;5053241;28;20633;-71
2023/07/19 02:38:56;;;;;;;5.40;3.90;;;;;;;17.38;100.00;99746.97;5053088;28;20180;-71
2023/07/19 02:41:21;;;;;;;4.97;3.40;;;;;;;17.33;100.00;99749.16;5052911;28;20256;-70
2023/07/19 02:43:47;;;;;;;7.30;3.00;;;;;;;17.12;100.00;99746.69;5057852;28;20216;-70
2023/07/19 02:46:12;;;;;;;5.40;3.00;;;;;;;17.12;100.00;99746.69;5052783;28;20629;-70
2023/07/19 02:48:37;;;;;;;3.60;3.20;;;;;;;17.16;100.00;99744.63;5051744;28;20185;-70
2023/07/19 02:51:03;;;;;;;4.60;3.00;;;;;;;17.05;100.00;99748.16;5050379;28;20355;-70
2023/07/19 02:53:28;;;;;;;8.67;3.30;;;;;;;16.94;100.00;99742.13;5060661;28;20181;-69
2023/07/19 02:55:53;;;;;;;8.40;3.60;;;;;;;16.90;100.00;99751.09;5052557;28;20224;-70
2023/07/19 02:58:19;;;;;;;7.03;3.10;;;;;;;16.84;100.00;99746.44;5052500;28;20185;-70
2023/07/19 03:00:44;;;;;;;4.83;3.50;;;;;;;16.88;100.00;99747.00;5037889;28;20228;-70
2023/07/19 03:03:11;;;;;;;5.20;3.30;;;;;;;16.87;100.00;99753.13;5049759;28;20201;-70
2023/07/19 03:05:42;;;;;;;5.33;3.30;;;;;;;16.92;100.00;99756.22;5052037;28;20185;-70
2023/07/19 03:08:08;;;;;;;6.10;3.53;;;;;;;16.89;100.00;99757.28;5050977;28;20177;-70
2023/07/19 03:10:33;;;;;;;3.60;3.13;;;;;;;16.81;100.00;99757.09;5043811;28;20236;-70
2023/07/19 03:12:58;;;;;;;4.83;3.60;;;;;;;16.71;100.00;99762.28;5053920;28;20244;-70
2023/07/19 03:15:23;;;;;;;6.63;3.20;;;;;;;16.74;100.00;99758.59;5044640;28;20228;-70
2023/07/19 03:17:49;;;;;;;4.53;3.03;;;;;;;16.74;100.00;99758.59;5065002;28;20563;-70
2023/07/19 03:20:14;;;;;;;4.03;3.20;;;;;;;16.74;100.00;99759.41;5043846;28;20185;-70
2023/07/19 03:22:40;;;;;;;3.70;2.90;;;;;;;16.80;100.00;99760.66;5037754;28;20205;-71
2023/07/19 03:25:05;;;;;;;8.40;3.00;;;;;;;16.72;100.00;99769.13;5051988;28;20246;-71
2023/07/19 03:27:31;;;;;;;6.93;3.33;;;;;;;16.69;100.00;99771.16;5052089;28;20188;-71
2023/07/19 03:29:56;;;;;;;7.50;3.40;;;;;;;16.66;100.00;99774.84;5052525;28;20191;-72
2023/07/19 03:32:21;;;;;;;9.63;3.33;;;;;;;16.68;100.00;99777.28;5020345;28;20216;-72
2023/07/19 03:34:47;;;;;;;4.77;3.00;;;;;;;16.61;100.00;99780.41;5051678;28;20197;-69
2023/07/19 03:37:12;;;;;;;6.00;3.27;;;;;;;16.57;100.00;99783.38;5052196;28;20519;-69
2023/07/19 03:39:37;;;;;;;5.87;3.50;;;;;;;16.54;100.00;99781.06;5052283;28;20192;-69
2023/07/19 03:42:03;;;;;;;3.90;2.83;;;;;;;16.50;100.00;99783.09;5056558;28;20254;-69
2023/07/19 03:44:28;;;;;;;4.27;2.87;;;;;;;16.50;100.00;99782.28;5051471;28;20193;-69
2023/07/19 03:46:53;;;;;;;5.60;3.53;;;;;;;16.52;100.00;99788.16;5050710;28;20181;-71
2023/07/19 03:49:19;;;;;;;8.03;3.47;;;;;;;16.41;100.00;99797.69;5052018;28;20186;-70
2023/07/19 03:51:44;;;;;;;5.57;3.20;;;;;;;16.45;100.00;99790.47;5042540;28;20637;-70
2023/07/19 03:54:09;;;;;;;5.40;3.30;;;;;;;16.34;100.00;99793.13;5053924;28;20185;-69
2023/07/19 03:56:35;;;;;;;3.53;3.13;;;;;;;16.39;100.00;99794.38;5050075;28;20602;-70
2023/07/19 03:59:00;;;;;;;5.97;3.10;;;;;;;16.44;100.00;99797.41;5052120;28;20239;-70
2023/07/19 04:01:25;;;;;;;9.63;3.60;;;;;;;16.53;100.00;99797.59;5051662;28;20228;-71
2023/07/19 04:03:50;;;;;;;3.73;3.40;;;;;;;16.59;100.00;99795.28;5056955;28;20272;-70
2023/07/19 04:06:16;;;;;;;7.03;2.80;;;;;;;16.60;100.00;99804.72;5049789;28;20189;-70
2023/07/19 04:08:41;;;;;;;8.87;3.07;;;;;;;16.59;100.00;99800.47;5051709;28;20173;-70
2023/07/19 04:11:06;;;;;;;6.50;3.13;;;;;;;16.64;100.00;99799.28;5049083;28;20240;-71
2023/07/19 04:13:31;;;;;;;5.97;3.67;;;;;;;16.74;100.00;99802.72;5050310;28;20220;-70
2023/07/19 04:15:57;;;;;;;4.70;2.80;;;;;;;16.81;100.00;99797.81;5049733;28;20220;-71
2023/07/19 04:18:22;;;;;;;4.97;3.27;;;;;;;16.83;100.00;99798.53;5049513;28;20546;-70
2023/07/19 04:20:56;;;;;;;7.23;3.27;;;;;;;16.87;100.00;99795.53;5046996;28;20308;-71
2023/07/19 04:23:22;;;;;;;3.87;2.77;;;;;;;16.99;100.00;99801.47;5050142;28;20540;-71
2023/07/19 04:25:49;;;;;;;5.00;2.80;;;;;;;17.10;100.00;99797.94;5050853;28;20196;-70
2023/07/19 04:28:14;;;;;;;5.53;3.30;;;;;;;17.16;100.00;99809.59;5049996;28;20240;-70
2023/07/19 04:30:39;;;;;;;4.97;3.10;;;;;;;17.19;100.00;99810.16;5045184;28;20720;-71
2023/07/19 04:33:04;;;;;;;4.20;2.80;;;;;;;17.19;100.00;99812.75;5061622;28;20189;-71
2023/07/19 04:35:30;;;;;;;4.13;3.33;;;;;;;17.28;100.00;99808.53;5049533;28;20221;-70
2023/07/19 04:37:55;;;;;;;5.57;3.23;;;;;;;17.24;100.00;99805.38;5051385;28;20692;-69
2023/07/19 04:40:20;;;;;;;5.93;3.37;;;;;;;17.33;100.00;99806.34;5042628;28;22561;-70
2023/07/19 04:42:45;;;;;;;8.73;3.27;;;;;;;17.29;100.00;99807.59;5064071;28;20185;-70
2023/07/19 04:45:13;;;;;;;3.90;3.03;;;;;;;17.29;100.00;99801.53;5050893;28;20542;-71
2023/07/19 04:47:38;;;;;;;4.97;3.13;;;;;;;17.46;100.00;99793.06;5050029;28;20177;-70
2023/07/19 04:50:07;;;;;;;5.37;3.17;;;;;;;17.41;100.00;99793.50;5039712;28;20185;-70
2023/07/19 04:52:32;;;;;;;6.33;3.40;;;;;;;17.27;100.00;99799.91;5065843;28;20177;-70
2023/07/19 04:54:57;;;;;;;7.57;3.73;;;;;;;17.48;100.00;99793.78;5047710;28;20197;-70
2023/07/19 04:57:23;;;;;;;6.80;3.53;;;;;;;17.71;100.00;99796.09;5040784;28;20684;-70
2023/07/19 04:59:48;;;;;;;7.90;3.20;;;;;;;17.64;100.00;99798.44;5049735;28;20189;-70
2023/07/19 05:02:14;;;;;;;6.17;3.93;;;;;;;17.73;100.00;99800.19;5033354;28;20216;-72
2023/07/19 05:04:39;;;;;;;6.03;3.70;;;;;;;17.66;100.00;99800.91;5050743;28;20201;-70
2023/07/19 05:07:04;;;;;;;4.43;3.47;;;;;;;17.89;100.00;99797.03;5051024;28;20628;-71
2023/07/19 05:09:29;;;;;;;5.17;2.80;;;;;;;18.13;100.00;99798.41;5036379;28;20205;-60
2023/07/19 05:11:55;;;;;;;6.43;3.47;;;;;;;18.45;100.00;99809.44;5054069;28;20216;-59
2023/07/19 05:14:20;;;;;;;6.67;3.37;;;;;;;18.39;100.00;99808.22;5050858;28;20228;-59
2023/07/19 05:16:45;;;;;;;6.37;3.60;;;;;;;18.77;100.00;99816.06;5051224;28;20287;-60
2023/07/19 05:19:11;;;;;;;7.07;3.63;;;;;;;19.10;100.00;99824.28;5049418;28;20551;-60
2023/07/19 05:21:36;;;;;;;9.67;3.30;;;;;;;19.39;100.00;99824.09;5042205;28;20231;-59
2023/07/19 05:24:02;;;;;;;5.90;2.90;;;;;;;19.58;100.00;99819.72;5053631;28;20181;-60
2023/07/19 05:26:27;;;;;;;6.30;3.37;;;;;;;19.93;100.00;99823.28;5050784;28;20194;-59
2023/07/19 05:28:53;;;;;;;5.57;3.63;;;;;;;20.10;100.00;99826.84;5052634;28;20608;-59
2023/07/19 05:31:19;;;;;;;5.67;2.90;;;;;;;20.26;100.00;99820.91;5053014;28;20307;-59
2023/07/19 05:33:44;;;;;;;6.47;3.23;;;;;;;20.40;99.94;99817.72;5058882;28;20185;-60
2023/07/19 05:36:09;;;;;;;4.23;2.97;;;;;;;20.52;99.74;99826.13;5054064;28;20232;-60
2023/07/19 05:38:35;;;;;;;5.97;3.13;;;;;;;20.60;99.83;99825.34;5053814;28;20185;-60
2023/07/19 05:41:01;;;;;;;5.27;3.17;;;;;;;20.32;100.00;99815.88;5037550;28;20239;-59
2023/07/19 05:43:27;;;;;;;5.23;3.53;;;;;;;20.29;100.00;99816.22;5039151;28;20182;-59
2023/07/19 05:45:52;;;;;;;7.10;3.30;;;;;;;20.48;99.86;99819.59;5042065;28;20189;-58
2023/07/19 05:48:18;;;;;;;4.20;2.87;;;;;;;20.74;97.35;99813.50;5053960;28;20181;-58
2023/07/19 05:50:43;;;;;;;4.90;3.43;;;;;;;20.90;95.58;99825.84;5048886;28;20234;-59
2023/07/19 05:53:08;;;;;;;4.40;3.47;;;;;;;20.92;94.78;99821.28;5063232;28;20712;-59
2023/07/19 05:55:34;;;;;;;4.63;2.80;;;;;;;21.10;93.90;99827.22;5053503;28;20264;-58
2023/07/19 05:57:59;;;;;;;6.73;3.20;;;;;;;21.10;93.14;99821.19;5054127;28;20637;-57
2023/07/19 06:00:28;;;;;;;5.03;3.20;;;;;;;21.10;95.52;99826.41;5046569;28;20232;-59
2023/07/19 06:02:54;;;;;;;6.77;4.80;;;;;;;21.42;94.54;99825.66;5051719;28;20208;-58
2023/07/19 06:05:20;;;;;;;5.30;3.30;;;;;;;21.50;93.78;99832.69;5053549;28;20193;-59
2023/07/19 06:07:46;;;;;;;6.23;3.87;;;;;;;21.72;93.62;99826.03;5053475;28;20235;-58
2023/07/19 06:10:11;;;;;;;2.93;2.63;;;;;;;21.42;91.64;99825.66;5043414;28;20178;-59
2023/07/19 06:12:37;;;;;;;7.77;3.43;;;;;;;21.88;90.11;99822.63;5067149;28;20733;-58
2023/07/19 06:15:02;;;;;;;5.53;3.17;;;;;;;22.41;88.50;99835.34;5053397;28;20185;-58
2023/07/19 06:17:27;;;;;;;8.67;3.10;;;;;;;22.27;86.81;99825.53;5053570;28;20181;-58
2023/07/19 06:19:53;;;;;;;6.93;3.00;;;;;;;21.99;87.29;99828.50;5053767;28;20606;-59
2023/07/19 06:22:18;;;;;;;8.97;3.20;;;;;;;22.20;85.58;99823.56;5057320;28;20220;-60
2023/07/19 06:24:43;;;;;;;8.07;3.30;;;;;;;22.79;79.78;99822.44;5053199;28;20204;-59
2023/07/19 06:27:09;;;;;;;5.67;2.53;;;;;;;22.73;71.29;99823.91;5053559;28;20189;-59
2023/07/19 06:29:34;;;;;;;4.63;2.90;;;;;;;23.18;72.23;99828.66;5053392;28;20185;-59
2023/07/19 06:32:00;;;;;;;7.87;2.83;;;;;;;23.48;67.06;99829.63;5043603;28;20225;-58
2023/07/19 06:34:25;;;;;;;10.90;3.17;;;;;;;23.78;63.10;99839.44;5040250;28;20672;-58
2023/07/19 06:36:51;;;;;;;6.70;3.10;;;;;;;24.30;63.28;99836.03;5052530;28;20197;-60
2023/07/19 06:39:16;;;;;;;6.33;2.97;;;;;;;24.96;58.93;99840.56;5053244;28;20671;-59
2023/07/19 06:41:41;;;;;;;4.20;3.63;;;;;;;25.93;53.21;99843.75;5043953;28;20644;-59
2023/07/19 06:44:07;;;;;;;7.53;3.08;;;;;;;26.80;50.92;99843.53;5055687;28;20188;-59
2023/07/19 06:46:32;;;;;;;5.88;2.75;;;;;;;27.08;47.87;99849.72;5052979;28;20783;-59
2023/07/19 06:48:57;;;;;;;4.57;3.20;;;;;;;27.15;48.02;99848.75;5053310;28;20177;-59
2023/07/19 06:51:22;;;;;;;6.28;2.70;;;;;;;28.15;43.44;99848.03;5049913;28;20224;-61
2023/07/19 06:53:48;;;;;;;4.07;2.83;;;;;;;30.06;38.49;99848.56;5058729;28;20620;-78
2023/07/19 06:56:13;;;;;;;4.20;2.90;;;;;;;30.41;37.28;99851.44;5044374;28;20244;-77
2023/07/19 06:58:38;;;;;;;10.95;2.80;;;;;;;31.67;33.85;99850.06;5049927;28;20197;-79
2023/07/19 07:01:03;;;;;;;6.53;2.88;;;;;;;30.99;35.18;99859.19;5027417;28;20220;-76
2023/07/19 07:03:29;;;;;;;5.72;2.90;;;;;;;33.01;30.90;99853.94;5047755;28;20182;-76
2023/07/19 07:05:54;;;;;;;11.48;2.95;;;;;;;31.11;34.04;99859.25;5043644;28;20189;-79
2023/07/19 07:08:20;;;;;;;10.82;2.95;;;;;;;33.21;31.99;99853.53;5051862;28;20193;-77
2023/07/19 07:10:45;;;;;;;4.18;3.10;;;;;;;32.93;31.30;99858.63;5043073;28;20262;-79
2023/07/19 07:13:10;;;;;;;5.72;3.13;;;;;;;31.97;32.89;99859.78;5050636;28;20250;-77
2023/07/19 07:15:36;;;;;;;4.20;2.83;;;;;;;30.91;34.60;99862.94;5042790;28;20722;-76
2023/07/19 07:18:01;;;;;;;8.18;3.22;;;;;;;32.52;34.05;99860.44;5050590;28;20177;-76
2023/07/19 07:20:26;;;;;;;5.07;2.70;;;;;;;32.43;31.79;99865.34;5045416;28;20229;-77
2023/07/19 07:22:53;;;;;;;5.63;2.95;;;;;;;31.61;32.24;99866.09;5049396;28;20269;-76
2023/07/19 07:25:19;;;;;;;6.03;2.47;;;;;;;34.00;29.63;99866.03;5053058;28;20195;-82
2023/07/19 07:27:44;;;;;;;3.22;2.53;;;;;;;34.93;27.81;99858.38;5052131;28;20181;-79
2023/07/19 07:30:10;;;;;;;4.53;2.60;;;;;;;34.37;28.38;99862.81;5020845;28;20181;-76
2023/07/19 07:32:35;;;;;;;3.20;2.55;;;;;;;32.39;30.52;99863.38;5026289;28;20551;-76
2023/07/19 07:35:01;;;;;;;6.78;2.72;;;;;;;34.23;28.75;99859.66;5051157;28;20237;-75
2023/07/19 07:37:26;;;;;;;8.35;2.75;;;;;;;33.24;29.63;99861.03;5052226;28;20197;-79
2023/07/19 07:39:51;;;;;;;3.47;2.78;;;;;;;34.24;28.47;99858.59;5045625;28;20625;-77
2023/07/19 07:42:17;;;;;;;6.10;2.58;;;;;;;34.00;28.66;99852.69;5045601;28;20229;-78
2023/07/19 07:44:42;;;;;;;3.72;2.67;;;;;;;35.35;26.44;99853.19;5050526;28;20185;-77
2023/07/19 07:47:08;;;;;;;4.88;2.40;;;;;;;34.09;27.40;99850.41;5052262;28;20600;-78
2023/07/19 07:49:33;;;;;;;5.60;2.70;;;;;;;34.35;27.81;99835.56;5050606;28;20189;-75
2023/07/19 07:51:59;;;;;;;5.72;2.70;;;;;;;34.88;27.18;99837.75;5038328;28;20320;-77
2023/07/19 07:54:24;;;;;;;2.88;2.53;;;;;;;34.31;27.64;99834.41;5052004;28;20259;-76
2023/07/19 07:56:49;;;;;;;3.90;2.60;;;;;;;34.44;27.74;99838.59;5050874;28;20264;-76
2023/07/19 07:59:15;;;;;;;2.92;2.55;;;;;;;35.05;26.70;99830.44;5051757;28;20189;-78
2023/07/19 08:01:41;;;;;;;6.18;2.67;;;;;;;36.21;25.69;99826.50;5038777;28;20220;-77
2023/07/19 08:04:09;;;;;;;5.38;2.60;;;;;;;34.18;27.33;99824.09;5054443;28;20186;-76
2023/07/19 08:06:35;;;;;;;3.83;2.70;;;;;;;35.51;25.99;99822.06;5050738;28;20186;-76
2023/07/19 08:09:00;;;;;;;6.97;3.20;;;;;;;37.00;24.57;99818.44;5051004;28;20544;-76
2023/07/19 08:11:26;;;;;;;4.00;2.65;;;;;;;38.06;23.24;99817.00;5038504;28;20696;-78
2023/07/19 08:13:52;;;;;;;4.72;2.60;;;;;;;37.40;24.03;99814.19;5051303;28;20984;-78
2023/07/19 08:16:17;;;;;;;5.35;2.40;;;;;;;35.98;25.74;99807.09;5049561;28;20678;-77
2023/07/19 08:18:43;;;;;;;9.20;3.05;;;;;;;35.29;26.31;99805.25;5050012;28;20196;-78
2023/07/19 08:21:08;;;;;;;4.68;2.80;;;;;;;36.28;24.97;99799.47;5042530;28;20563;-76
2023/07/19 08:23:33;;;;;;;4.35;2.90;;;;;;;34.83;26.10;99803.78;5058806;28;20230;-75
2023/07/19 08:25:59;;;;;;;6.55;2.80;;;;;;;36.03;25.05;99809.00;5049569;28;20189;-76
2023/07/19 08:28:25;;;;;;;4.25;3.20;;;;;;;35.57;26.45;99798.81;5051105;28;20181;-75
2023/07/19 08:30:51;;;;;;;3.88;2.65;;;;;;;37.10;24.06;99790.81;5047268;28;20303;-77
2023/07/19 08:33:16;;;;;;;4.65;2.95;;;;;;;37.37;23.88;99795.94;5060190;28;20185;-77
2023/07/19 08:35:42;;;;;;;4.45;2.55;;;;;;;38.14;22.68;99794.16;5049399;28;20196;-76
2023/07/19 08:38:07;;;;;;;7.82;2.75;;;;;;;36.60;25.07;99791.28;5052000;28;20230;-76
2023/07/19 08:40:37;;;;;;;5.05;2.53;;;;;;;37.05;24.93;99794.28;5041746;28;20391;-77
2023/07/19 08:43:05;;;;;;;7.57;2.47;;;;;;;39.55;22.71;99794.53;5049374;28;20185;-74
2023/07/19 08:45:30;;;;;;;4.22;2.83;;;;;;;40.32;21.87;99803.63;5048209;28;20184;-74
2023/07/19 08:47:56;;;;;;;6.82;2.50;;;;;;;40.80;20.46;99796.53;5049864;28;20542;-75
2023/07/19 08:50:23;;;;;;;3.17;2.10;;;;;;;39.54;20.97;99797.50;5042960;28;20221;-76
2023/07/19 08:52:49;;;;;;;10.02;2.70;;;;;;;38.90;22.32;99784.06;5063026;28;20625;-75
2023/07/19 08:55:14;;;;;;;6.40;2.45;;;;;;;39.00;22.56;99780.50;5049133;28;20292;-74
2023/07/19 08:57:43;;;;;;;3.63;2.63;;;;;;;39.18;23.54;99779.00;5051079;28;20624;-74
2023/07/19 09:00:09;;;;;;;5.82;2.50;;;;;;;37.95;24.28;99784.03;5042003;28;20196;-75
2023/07/19 09:02:34;;;;;;;4.57;2.70;;;;;;;40.08;21.38;99778.59;5048948;28;20182;-75
2023/07/19 09:05:10;;;;;;;7.88;3.83;;;;;;;38.48;22.03;99782.72;5054365;28;20215;-74
2023/07/19 09:07:37;;;;;;;7.57;2.58;;;;;;;38.15;22.72;99772.38;5053658;28;20193;-75
2023/07/19 09:10:04;;;;;;;5.72;2.78;;;;;;;38.50;22.46;99767.91;5048137;28;20223;-73
2023/07/19 09:12:37;;;;;;;3.72;2.47;;;;;;;38.08;23.67;99775.38;5069190;28;20221;-76
2023/07/19 09:15:04;;;;;;;3.78;2.53;;;;;;;37.86;23.53;99764.19;5041223;28;20221;-77
2023/07/19 09:17:29;;;;;;;4.28;2.13;;;;;;;38.50;21.48;99767.13;5055530;28;20193;-77
2023/07/19 09:19:54;;;;;;;9.98;2.50;;;;;;;37.84;22.27;99774.41;5053994;28;20324;-77
2023/07/19 09:22:20;;;;;;;3.70;2.33;;;;;;;39.27;22.13;99776.53;5058926;28;20777;-76
2023/07/19 09:24:57;;;;;;;2.92;2.20;;;;;;;39.36;21.14;99772.13;5053256;28;20178;-75
2023/07/19 09:27:25;;;;;;;3.88;2.35;;;;;;;38.19;22.39;99775.31;5054552;28;20256;-75
2023/07/19 09:29:51;;;;;;;2.63;2.08;;;;;;;36.27;22.56;99757.69;5054421;28;20173;-75
2023/07/19 09:32:16;;;;;;;4.68;2.20;;;;;;;35.49;24.51;99762.66;5059024;28;20286;-75
2023/07/19 09:34:41;;;;;;;4.85;2.60;;;;;;;34.69;25.85;99754.47;5053912;28;20283;-75
2023/07/19 09:37:07;;;;;;;5.65;2.53;;;;;;;33.99;26.73;99754.19;5052907;28;20239;-75
2023/07/19 09:39:35;;;;;;;8.00;2.30;;;;;;;35.15;26.29;99749.53;5053296;28;20598;-75
2023/07/19 09:42:01;;;;;;;7.93;2.50;;;;;;;34.96;25.93;99751.81;5045452;28;20236;-74
2023/07/19 09:44:27;;;;;;;5.63;2.10;;;;;;;34.90;25.77;99747.50;5052243;28;20180;-77
2023/07/19 09:46:56;;;;;;;4.43;2.60;;;;;;;33.70;27.02;99749.78;5054478;28;20182;-75
2023/07/19 09:49:23;;;;;;;3.63;1.92;;;;;;;33.08;27.22;99750.72;5052993;28;20200;-75
2023/07/19 09:51:49;;;;;;;3.13;2.13;;;;;;;32.70;28.28;99745.00;5045137;28;20316;-76
2023/07/19 09:54:16;;;;;;;3.20;2.38;;;;;;;32.62;28.64;99740.88;5051983;28;20189;-76
2023/07/19 09:56:42;;;;;;;2.35;2.13;;;;;;;32.55;29.23;99726.91;5054008;28;20286;-77
2023/07/19 09:59:12;;;;;;;2.78;2.20;;;;;;;32.09;28.61;99728.63;5053924;28;20249;-75
2023/07/19 10:01:37;;;;;;;8.57;2.75;;;;;;;32.56;29.40;99725.03;5046251;28;20228;-75
2023/07/19 10:04:22;;;;;;;4.80;2.53;;;;;;;32.17;29.76;99726.41;5052656;28;20184;-75
2023/07/19 10:06:48;;;;;;;7.68;1.77;;;;;;;31.97;29.24;99720.69;5052520;28;20265;-76
2023/07/19 10:09:23;;;;;;;2.50;2.28;;;;;;;31.32;29.31;99722.41;5052792;28;20613;-77
2023/07/19 10:11:50;;;;;;;4.57;2.30;;;;;;;31.26;31.25;99716.19;5045016;28;20244;-77
2023/07/19 10:14:27;;;;;;;5.75;2.17;;;;;;;31.74;30.09;99703.72;5049949;28;20221;-79
2023/07/19 10:16:58;;;;;;;4.70;1.90;;;;;;;32.09;29.61;99712.66;5052209;28;20173;-78
2023/07/19 10:19:23;;;;;;;4.10;2.45;;;;;;;32.11;30.38;99711.38;5052312;28;20219;-78
2023/07/19 10:22:08;;;;;;;4.50;2.13;;;;;;;32.01;30.03;99704.00;5045193;28;20236;-78
2023/07/19 10:24:38;;;;;;;6.13;2.30;;;;;;;33.47;28.10;99708.16;5040059;28;20193;-78
2023/07/19 10:27:05;;;;;;;3.55;1.80;;;;;;;34.35;26.43;99704.75;5052465;28;20271;-79
2023/07/19 10:29:41;;;;;;;4.38;2.08;;;;;;;34.06;26.75;99701.47;5052269;28;20672;-78
2023/07/19 10:32:07;;;;;;;3.88;2.58;;;;;;;33.74;26.80;99699.44;5055059;28;20228;-79
2023/07/19 10:34:33;;;;;;;4.97;2.20;;;;;;;32.99;28.38;99702.34;5050922;28;20205;-77
2023/07/19 10:37:06;;;;;;;4.57;2.30;;;;;;;31.43;30.28;99695.03;5048098;28;20178;-77
2023/07/19 10:39:32;;;;;;;5.38;2.35;;;;;;;31.34;31.15;99691.13;5053301;28;20266;-77
2023/07/19 10:42:01;;;;;;;4.65;2.20;;;;;;;31.48;31.38;99692.53;5035579;28;20225;-73
2023/07/19 10:44:26;;;;;;;3.22;2.15;;;;;;;31.70;31.84;99683.97;5050369;28;20216;-76
2023/07/19 10:46:56;;;;;;;4.95;2.15;;;;;;;30.84;30.73;99685.16;5049825;28;20609;-75
2023/07/19 10:49:23;;;;;;;3.10;2.05;;;;;;;31.26;31.28;99686.16;5053754;28;20182;-76
2023/07/19 10:51:56;;;;;;;6.90;2.40;;;;;;;31.07;31.48;99678.28;5042894;28;20668;-80
2023/07/19 10:54:22;;;;;;;6.07;2.15;;;;;;;31.10;32.20;99675.19;5047691;28;20220;-75
2023/07/19 10:56:49;;;;;;;3.03;2.00;;;;;;;31.00;31.18;99682.88;5052213;28;20216;-80
2023/07/19 10:59:15;;;;;;;10.70;2.08;;;;;;;30.50;32.99;99673.41;5051857;28;20620;-76
2023/07/19 11:01:40;;;;;;;4.90;2.25;;;;;;;30.40;33.66;99672.09;5037347;28;20226;-77
2023/07/19 11:04:07;;;;;;;4.68;1.70;;;;;;;30.48;32.00;99664.81;5055281;28;20207;-77
2023/07/19 11:06:54;;;;;;;5.50;2.03;;;;;;;30.08;33.50;99663.50;5050692;28;20659;-76
2023/07/19 11:09:22;;;;;;;6.10;2.30;;;;;;;30.07;34.17;99662.69;5047471;28;20282;-76
2023/07/19 11:11:48;;;;;;;6.43;2.33;;;;;;;30.38;33.17;99660.06;5054349;28;20230;-76
2023/07/19 11:14:33;;;;;;;4.75;2.20;;;;;;;30.54;33.92;99658.63;5047285;28;20583;-59
2023/07/19 11:16:59;;;;;;;7.05;2.10;;;;;;;30.77;31.86;99659.75;5050407;28;20253;-56
2023/07/19 11:19:35;;;;;;;7.45;2.10;;;;;;;30.90;32.63;99655.03;5043341;28;20201;-57
2023/07/19 11:22:01;;;;;;;4.25;1.90;;;;;;;31.01;32.83;99653.44;5027246;28;20260;-55
2023/07/19 11:24:40;;;;;;;6.90;2.42;;;;;;;30.55;32.08;99661.09;5047779;28;20581;-55